createdAt,value
2019-05-07T00:01:07.912Z,7.17
2019-05-07T00:06:09.670Z,5.90
2019-05-07T00:11:12.617Z,6.30
2019-05-07T00:16:14.394Z,5.87
2019-05-07T00:21:16.236Z,6.47
2019-05-07T00:26:17.671Z,6.63
2019-05-07T00:31:19.227Z,6.60
2019-05-07T00:36:23.081Z,6.70
2019-05-07T00:41:24.927Z,6.03
2019-05-07T00:46:26.352Z,6.10
2019-05-07T00:51:28.240Z,7.30
2019-05-07T00:56:30.038Z,6.93
2019-05-07T01:01:32.357Z,6.97
2019-05-07T01:06:33.950Z,7.20
2019-05-07T01:11:35.715Z,6.77
2019-05-07T01:16:37.091Z,7.37
2019-05-07T01:21:38.643Z,6.07
2019-05-07T01:26:42.403Z,7.23
2019-05-07T01:31:43.580Z,6.43
2019-05-07T01:36:45.110Z,6.83
2019-05-07T01:41:46.635Z,6.17
2019-05-07T01:46:48.168Z,6.43
2019-05-07T01:51:49.673Z,6.73
2019-05-07T01:56:52.193Z,7.57
2019-05-07T02:01:53.836Z,7.27
2019-05-07T02:06:55.386Z,6.93
2019-05-07T02:11:57.247Z,6.60
2019-05-07T02:16:58.809Z,6.90
2019-05-07T02:22:02.583Z,6.87
2019-05-07T02:27:03.750Z,7.37
2019-05-07T02:32:05.617Z,7.70
2019-05-07T02:37:07.023Z,8.30
2019-05-07T02:42:08.549Z,7.30
2019-05-07T02:47:12.729Z,7.53
2019-05-07T02:52:13.893Z,8.47
2019-05-07T02:57:16.954Z,9.00
2019-05-07T03:02:19.017Z,9.57
2019-05-07T03:07:23.900Z,9.97
2019-05-07T03:12:24.756Z,8.20
2019-05-07T03:17:26.185Z,9.17
2019-05-07T03:22:27.659Z,9.77
2019-05-07T03:27:29.413Z,9.33
2019-05-07T03:32:36.531Z,9.13
2019-05-07T03:37:36.315Z,9.00
2019-05-07T03:42:38.136Z,9.00
2019-05-07T03:47:39.646Z,8.97
2019-05-07T03:52:42.841Z,10.23
2019-05-07T03:57:44.980Z,10.10
2019-05-07T04:02:46.390Z,11.40
2019-05-07T04:07:48.192Z,10.97
2019-05-07T04:12:49.776Z,9.80
2019-05-07T04:17:53.703Z,11.53
2019-05-07T04:22:55.576Z,9.77
2019-05-07T04:27:57.078Z,10.53
2019-05-07T04:32:58.597Z,11.10
2019-05-07T04:38:03.422Z,11.70
2019-05-07T04:43:03.807Z,11.57
2019-05-07T04:48:05.291Z,11.80
2019-05-07T04:53:06.837Z,12.77
2019-05-07T04:58:09.213Z,11.77
2019-05-07T05:03:12.937Z,12.40
2019-05-07T05:08:14.536Z,12.70
2019-05-07T05:13:16.157Z,13.83
2019-05-07T05:18:18.212Z,13.60
2019-05-07T05:23:19.916Z,13.43
2019-05-07T05:28:21.983Z,13.10
2019-05-07T05:33:24.284Z,12.90
2019-05-07T05:38:26.127Z,14.97
2019-05-07T05:43:27.662Z,14.60
2019-05-07T05:48:29.164Z,15.57
2019-05-07T05:53:32.716Z,15.70
2019-05-07T05:58:34.236Z,15.20
2019-05-07T06:03:35.728Z,15.17
2019-05-07T06:08:37.251Z,14.77
2019-05-07T06:13:39.214Z,13.30
2019-05-07T06:18:41.975Z,13.57
2019-05-07T06:23:43.573Z,13.30
2019-05-07T06:28:45.178Z,13.83
2019-05-07T06:33:47.376Z,14.37
2019-05-07T06:38:49.757Z,17.13
2019-05-07T06:43:52.158Z,19.93
2019-05-07T06:48:54.270Z,20.40
2019-05-07T06:53:56.904Z,21.63
2019-05-07T06:58:58.691Z,21.87
2019-05-07T07:04:02.628Z,20.77
2019-05-07T07:09:07.948Z,20.40
2019-05-07T07:14:09.342Z,22.67
2019-05-07T07:19:12.422Z,21.83
2019-05-07T07:24:14.127Z,22.30
2019-05-07T07:29:15.632Z,21.10
2019-05-07T07:34:17.481Z,22.80
2019-05-07T07:39:19.303Z,22.00
2019-05-07T07:44:22.339Z,21.40
2019-05-07T07:49:24.248Z,19.90
2019-05-07T07:54:26.307Z,21.40
2019-05-07T07:59:27.878Z,21.37
2019-05-07T08:04:33.374Z,22.73
2019-05-07T08:09:34.912Z,21.57
2019-05-07T08:14:36.447Z,19.43
2019-05-07T08:19:38.337Z,21.50
2019-05-07T08:24:42.395Z,14.03
2019-05-07T08:29:43.789Z,15.30
2019-05-07T08:34:45.311Z,15.20
2019-05-07T08:39:46.806Z,16.23
2019-05-07T08:44:48.349Z,14.90
2019-05-07T08:49:52.314Z,13.57
2019-05-07T08:54:53.935Z,13.67
2019-05-07T09:00:00.247Z,11.50
2019-05-07T09:04:59.131Z,11.18
2019-05-07T09:10:02.465Z,10.95
2019-05-07T09:15:04.386Z,11.55
2019-05-07T09:20:09.121Z,11.57
2019-05-07T09:25:09.872Z,11.05
2019-05-07T09:30:12.787Z,13.60
2019-05-07T09:35:14.679Z,14.33
2019-05-07T09:40:16.196Z,14.03
2019-05-07T09:45:17.698Z,12.98
2019-05-07T09:50:19.350Z,12.65
2019-05-07T09:55:23.135Z,11.93
2019-05-07T10:00:24.333Z,11.33
2019-05-07T10:05:26.625Z,12.03
2019-05-07T10:10:28.206Z,11.93
2019-05-07T10:15:30.044Z,12.10
2019-05-07T10:20:32.740Z,12.15
2019-05-07T10:25:34.811Z,11.12
2019-05-07T10:30:37.939Z,10.63
2019-05-07T10:35:41.009Z,10.45
2019-05-07T10:40:43.751Z,10.68
2019-05-07T10:45:45.364Z,12.35
2019-05-07T10:50:46.900Z,13.35
2019-05-07T10:55:48.397Z,15.15
2019-05-07T11:00:51.972Z,16.00
2019-05-07T11:05:53.448Z,13.70
2019-05-07T11:10:54.950Z,12.65
2019-05-07T11:15:56.884Z,11.15
2019-05-07T11:20:58.553Z,11.12
2019-05-07T11:26:00.025Z,10.65
2019-05-07T11:31:02.292Z,10.68
2019-05-07T11:36:04.246Z,10.20
2019-05-07T11:41:05.916Z,9.75
2019-05-07T11:46:07.710Z,11.30
2019-05-07T11:51:09.688Z,13.55
2019-05-07T11:56:11.795Z,15.03
2019-05-07T12:01:13.784Z,11.03
2019-05-07T12:06:15.268Z,9.87
2019-05-07T12:11:17.155Z,10.68
2019-05-07T12:16:18.680Z,11.23
2019-05-07T12:21:23.627Z,12.00
2019-05-07T12:26:24.401Z,11.15
2019-05-07T12:31:26.108Z,11.60
2019-05-07T12:36:27.657Z,13.62
2019-05-07T12:41:29.506Z,11.75
2019-05-07T12:46:33.369Z,12.45
2019-05-07T12:51:37.636Z,11.05
2019-05-07T12:56:39.059Z,10.68
2019-05-07T13:01:42.196Z,10.68
2019-05-07T13:06:44.277Z,11.08
2019-05-07T13:11:45.791Z,12.13
2019-05-07T13:16:47.731Z,10.78
2019-05-07T13:21:50.073Z,10.88
2019-05-07T13:26:52.189Z,10.95
2019-05-07T13:31:54.471Z,10.93
2019-05-07T13:36:56.338Z,9.68
2019-05-07T13:41:57.881Z,11.00
2019-05-07T13:47:02.132Z,10.63
2019-05-07T13:52:03.939Z,11.00
2019-05-07T13:57:05.489Z,11.43
2019-05-07T14:02:07.841Z,11.73
2019-05-07T14:07:09.499Z,11.25
2019-05-07T14:12:12.331Z,11.50
2019-05-07T14:17:14.185Z,10.48
2019-05-07T14:22:19.150Z,10.90
2019-05-07T14:27:21.049Z,10.58
2019-05-07T14:32:23.191Z,11.43
2019-05-07T14:37:24.765Z,11.30
2019-05-07T14:42:27.227Z,11.15
2019-05-07T14:47:28.889Z,10.88
2019-05-07T14:52:33.798Z,11.73
2019-05-07T14:57:34.110Z,11.15
2019-05-07T15:02:36.753Z,10.88
2019-05-07T15:07:38.568Z,11.60
2019-05-07T15:12:40.138Z,11.80
2019-05-07T15:17:42.075Z,11.50
2019-05-07T15:22:49.592Z,12.37
2019-05-07T15:27:47.568Z,11.80
2019-05-07T15:32:49.415Z,11.80
2019-05-07T15:37:51.803Z,12.10
2019-05-07T15:42:53.433Z,11.48
2019-05-07T15:47:54.747Z,11.68
2019-05-07T15:52:58.711Z,12.23
2019-05-07T15:58:02.659Z,12.10
2019-05-07T16:03:04.701Z,11.30
2019-05-07T16:08:08.579Z,10.88
2019-05-07T16:13:13.731Z,11.35
2019-05-07T16:18:15.468Z,11.90
2019-05-07T16:23:18.131Z,11.50
2019-05-07T16:28:21.795Z,11.25
2019-05-07T16:33:23.841Z,11.20
2019-05-07T16:38:26.076Z,11.85
2019-05-07T16:43:27.622Z,12.33
2019-05-07T16:48:29.219Z,11.83
2019-05-07T16:53:33.070Z,12.13
2019-05-07T16:58:35.059Z,11.85
2019-05-07T17:03:36.792Z,11.75
2019-05-07T17:08:38.694Z,11.75
2019-05-07T17:13:42.277Z,11.38
2019-05-07T17:18:44.526Z,11.80
2019-05-07T17:23:46.748Z,10.63
2019-05-07T17:28:48.542Z,11.18
2019-05-07T17:33:51.652Z,10.93
2019-05-07T17:38:53.552Z,11.78
2019-05-07T17:43:54.907Z,9.90
2019-05-07T17:48:56.419Z,11.00
2019-05-07T17:54:00.272Z,10.70
2019-05-07T17:59:02.901Z,10.72
2019-05-07T18:04:04.662Z,11.03
2019-05-07T18:09:06.840Z,11.15
2019-05-07T18:14:08.717Z,10.78
2019-05-07T18:19:10.246Z,10.80
2019-05-07T18:24:16.410Z,10.80
2019-05-07T18:29:15.705Z,12.07
2019-05-07T18:34:17.906Z,11.60
2019-05-07T18:39:20.525Z,11.40
2019-05-07T18:44:22.563Z,12.63
2019-05-07T18:49:24.240Z,12.60
2019-05-07T18:54:30.897Z,12.80
2019-05-07T18:59:29.361Z,13.50
2019-05-07T19:04:32.797Z,12.00
2019-05-07T19:09:35.825Z,12.03
2019-05-07T19:14:37.354Z,12.00
2019-05-07T19:19:39.224Z,12.87
2019-05-07T19:24:47.115Z,12.80
2019-05-07T19:29:45.845Z,15.03
2019-05-07T19:34:47.729Z,13.80
2019-05-07T19:39:49.206Z,12.80
2019-05-07T19:44:51.872Z,13.87
2019-05-07T19:49:53.916Z,14.37
2019-05-07T19:55:00.691Z,14.50
2019-05-07T19:59:59.083Z,14.40
2019-05-07T20:05:03.311Z,14.53
2019-05-07T20:10:04.116Z,15.40
2019-05-07T20:15:05.984Z,14.90
2019-05-07T20:20:07.481Z,15.00
2019-05-07T20:25:18.115Z,15.13
2019-05-07T20:30:13.051Z,14.03
2019-05-07T20:35:15.339Z,17.13
2019-05-07T20:40:16.873Z,14.77
2019-05-07T20:45:18.494Z,15.00
2019-05-07T20:50:22.242Z,14.70
2019-05-07T20:55:30.489Z,14.27
2019-05-07T21:00:27.254Z,15.10
2019-05-07T21:05:29.026Z,16.10
2019-05-07T21:10:32.827Z,16.93
2019-05-07T21:15:35.129Z,15.87
2019-05-07T21:20:36.598Z,15.77
2019-05-07T21:25:45.548Z,16.27
2019-05-07T21:30:42.804Z,15.43
2019-05-07T21:35:44.427Z,15.17
2019-05-07T21:40:46.302Z,16.73
2019-05-07T21:45:48.357Z,16.63
2019-05-07T21:50:51.965Z,16.80
2019-05-07T21:56:01.830Z,16.53
2019-05-07T22:00:58.461Z,17.67
2019-05-07T22:06:02.471Z,15.90
2019-05-07T22:11:04.690Z,16.70
2019-05-07T22:16:07.225Z,17.80
2019-05-07T22:21:08.712Z,17.73
2019-05-07T22:26:20.127Z,16.67
2019-05-07T22:31:13.909Z,16.60
2019-05-07T22:36:15.428Z,16.33
2019-05-07T22:41:17.181Z,17.00
2019-05-07T22:46:18.608Z,16.17
2019-05-07T22:51:20.082Z,16.90
2019-05-07T22:56:34.253Z,16.97
2019-05-07T23:01:25.080Z,16.67
2019-05-07T23:06:27.034Z,15.50
2019-05-07T23:11:28.441Z,15.67
2019-05-07T23:16:32.407Z,15.50
2019-05-07T23:21:33.628Z,15.20
2019-05-07T23:26:47.289Z,15.00
2019-05-07T23:31:38.812Z,15.47
2019-05-07T23:36:42.100Z,15.20
2019-05-07T23:41:43.659Z,15.10
2019-05-07T23:46:45.234Z,14.87
2019-05-07T23:51:46.782Z,14.90
2019-05-07T23:57:04.473Z,14.47
